Terminal Aerodrome Forecast
Issued by NWS

Home | Current Version | Previous Version | Text Only | Print | Product List | Glossary On
Versions: 1 2 3 4 5 6 7 8 9 10 11 12 13 14
000
FTAK31 PAJN 280522
TAFAGY
TAF
PAGY 280522Z 2806/2906 02004KT P6SM SCT200
     FM281700 21005KT P6SM BKN150
     FM282000 21015KT P6SM SCT150
      AMD LTD TO CLD VIS AND WIND=

USA.gov is the U.S. government's official web portal to all federal, state and local government web resources and services.